Station Historical Data
Daily Summary for March 15, 2019 Units:  Both    English   Metric
« Previous Day
Next Day »
Daily Weekly Monthly Yearly Custom
  High: Low: Average:
Temperature: TemperatureC °F /  -17.8 °C 5.4 °F /  -14.8 °C 13.9 °F /  -10.1 °C
Dew Point: DewpointC °F /  -17.8 °C 1.5 °F /  -16.9 °C 3.6 °F /  -15.8 °C
Humidity: Humidity % 30 % 53 %
Wind Speed: WindSpeedKMH mph /  0 km/h - 17.6 mph /  28.3 km/h
Wind Gust: WindSpeedGustKMH mph /  0 km/h - -
Wind:- - West
Pressure: PressurehPa in /  0 hPa 1006.9 in /  34093.6 hPa -
Precipitation: 0.0 in /  0 mm    
Historical Graphs
 
 
Tabular Data for March 15, 2019
Time Temperature Dew Point Pressure Wind Wind Speed Wind Gust Humidity Rainfall Rate (Hourly) solar Conditions
TemperatureC °F /  -17.8 °C DewpointC °F /  -17.8 °C PressurehPa in /  0 hPa Calm     Humidity % HourlyPrecipMM in /  0 mm SolarRadiationWatts/m^2 W/m2 Conditions
00:03 9.0 °F /  -12.8 °C 1.9 °F /  -16.7 °C 1007.2 in /  34103.8 hPa West 14.8 mph /  23.8 km/h 9.0 mph /  14.5 km/h 61 % 0.0 in /  0 mm 0.00 W/m2 CLR
00:08 8.8 °F /  -12.9 °C 1.9 °F /  -16.7 °C 1007.2 in /  34103.8 hPa WSW 12.9 mph /  20.8 km/h 9.8 mph /  15.8 km/h 62 % 0.0 in /  0 mm 0.00 W/m2 CLR
00:14 8.8 °F /  -12.9 °C 1.9 °F /  -16.7 °C 1007.2 in /  34103.8 hPa West 9.7 mph /  15.6 km/h 5.1 mph /  8.2 km/h 62 % 0.0 in /  0 mm 0.00 W/m2 CLR
00:18 8.7 °F /  -12.9 °C 2.0 °F /  -16.7 °C 1007.2 in /  34103.8 hPa WSW 14.8 mph /  23.8 km/h 10.8 mph /  17.4 km/h 63 % 0.0 in /  0 mm 0.00 W/m2 CLR
00:23 8.6 °F /  -13 °C 1.9 °F /  -16.7 °C 1007.0 in /  34097 hPa WSW 18.5 mph /  29.8 km/h 11.1 mph /  17.9 km/h 63 % 0.0 in /  0 mm 0.00 W/m2 CLR
00:29 8.5 °F /  -13.1 °C 1.8 °F /  -16.8 °C 1006.9 in /  34093.6 hPa WSW 13.0 mph /  20.9 km/h 9.5 mph /  15.3 km/h 63 % 0.0 in /  0 mm 0.00 W/m2 CLR
00:33 8.4 °F /  -13.1 °C 2.0 °F /  -16.7 °C 1006.9 in /  34093.6 hPa WSW 14.8 mph /  23.8 km/h 9.8 mph /  15.8 km/h 64 % 0.0 in /  0 mm 0.00 W/m2 CLR
00:38 8.4 °F /  -13.1 °C 1.9 °F /  -16.7 °C 1007.1 in /  34100.4 hPa WNW 16.1 mph /  25.9 km/h 12.4 mph /  20 km/h 64 % 0.0 in /  0 mm 0.00 W/m2 CLR
00:44 8.3 °F /  -13.2 °C 1.9 °F /  -16.7 °C 1007.1 in /  34100.4 hPa WSW 18.5 mph /  29.8 km/h 11.3 mph /  18.2 km/h 64 % 0.0 in /  0 mm 0.00 W/m2 CLR
00:48 8.3 °F /  -13.2 °C 1.9 °F /  -16.7 °C 1007.3 in /  34107.2 hPa West 18.5 mph /  29.8 km/h 12.6 mph /  20.3 km/h 64 % 0.0 in /  0 mm 0.00 W/m2 CLR
00:53 8.4 °F /  -13.1 °C 1.7 °F /  -16.8 °C 1007.4 in /  34110.6 hPa WSW 18.5 mph /  29.8 km/h 11.4 mph /  18.3 km/h 63 % 0.0 in /  0 mm 0.00 W/m2 CLR
00:59 8.5 °F /  -13.1 °C 1.6 °F /  -16.9 °C 1007.3 in /  34107.2 hPa WSW 14.8 mph /  23.8 km/h 10.3 mph /  16.6 km/h 62 % 0.0 in /  0 mm 0.00 W/m2 CLR
01:03 8.5 °F /  -13.1 °C 1.6 °F /  -16.9 °C 1007.5 in /  34114 hPa WSW 20.4 mph /  32.8 km/h 13.4 mph /  21.6 km/h 62 % 0.0 in /  0 mm 0.00 W/m2 CLR
01:09 8.4 °F /  -13.1 °C 1.8 °F /  -16.8 °C 1007.7 in /  34120.7 hPa WSW 14.8 mph /  23.8 km/h 10.9 mph /  17.5 km/h 63 % 0.0 in /  0 mm 0.00 W/m2 CLR
01:14 8.3 °F /  -13.2 °C 1.7 °F /  -16.8 °C 1007.8 in /  34124.1 hPa WNW 14.8 mph /  23.8 km/h 10.5 mph /  16.9 km/h 63 % 0.0 in /  0 mm 0.00 W/m2 CLR
01:18 8.3 °F /  -13.2 °C 1.7 °F /  -16.8 °C 1007.8 in /  34124.1 hPa WSW 20.4 mph /  32.8 km/h 13.0 mph /  20.9 km/h 63 % 0.0 in /  0 mm 0.00 W/m2 CLR
01:24 8.3 °F /  -13.2 °C 1.9 °F /  -16.7 °C 1007.8 in /  34124.1 hPa WNW 18.5 mph /  29.8 km/h 10.3 mph /  16.6 km/h 64 % 0.0 in /  0 mm 0.00 W/m2 CLR
01:29 8.2 °F /  -13.2 °C 1.8 °F /  -16.8 °C 1007.7 in /  34120.7 hPa WSW 14.8 mph /  23.8 km/h 10.1 mph /  16.3 km/h 64 % 0.0 in /  0 mm 0.00 W/m2 CLR
01:33 8.2 °F /  -13.2 °C 2.0 °F /  -16.7 °C 1007.7 in /  34120.7 hPa West 20.9 mph /  33.6 km/h 15.3 mph /  24.6 km/h 65 % 0.0 in /  0 mm 0.00 W/m2 CLR
01:39 8.2 °F /  -13.2 °C 2.0 °F /  -16.7 °C 1007.6 in /  34117.3 hPa WSW 16.7 mph /  26.9 km/h 11.6 mph /  18.7 km/h 65 % 0.0 in /  0 mm 0.00 W/m2 CLR
01:44 8.2 °F /  -13.2 °C 2.0 °F /  -16.7 °C 1007.7 in /  34120.7 hPa SW 18.5 mph /  29.8 km/h 11.4 mph /  18.3 km/h 65 % 0.0 in /  0 mm 0.00 W/m2 CLR
01:48 8.2 °F /  -13.2 °C 2.0 °F /  -16.7 °C 1007.6 in /  34117.3 hPa WSW 14.8 mph /  23.8 km/h 10.6 mph /  17.1 km/h 65 % 0.0 in /  0 mm 0.00 W/m2 CLR
01:54 8.2 °F /  -13.2 °C 2.0 °F /  -16.7 °C 1007.5 in /  34114 hPa West 20.9 mph /  33.6 km/h 12.4 mph /  20 km/h 65 % 0.0 in /  0 mm 0.00 W/m2 CLR
01:59 8.3 °F /  -13.2 °C 2.1 °F /  -16.6 °C 1007.6 in /  34117.3 hPa WNW 20.4 mph /  32.8 km/h 11.3 mph /  18.2 km/h 65 % 0.0 in /  0 mm 0.00 W/m2 CLR
02:02 8.3 °F /  -13.2 °C 2.1 °F /  -16.6 °C 1007.7 in /  34120.7 hPa West 20.9 mph /  33.6 km/h 14.5 mph /  23.3 km/h 65 % 0.0 in /  0 mm 0.00 W/m2 CLR
02:08 8.2 °F /  -13.2 °C 2.0 °F /  -16.7 °C 1007.7 in /  34120.7 hPa West 14.8 mph /  23.8 km/h 9.2 mph /  14.8 km/h 65 % 0.0 in /  0 mm 0.00 W/m2 CLR
02:13 8.1 °F /  -13.3 °C 2.1 °F /  -16.6 °C 1007.8 in /  34124.1 hPa WSW 13.0 mph /  20.9 km/h 10.1 mph /  16.3 km/h 66 % 0.0 in /  0 mm 0.00 W/m2 CLR
02:18 8.0 °F /  -13.3 °C 2.1 °F /  -16.6 °C 1007.7 in /  34120.7 hPa WSW 8.0 mph /  12.9 km/h 6.1 mph /  9.8 km/h 66 % 0.0 in /  0 mm 0.00 W/m2 CLR
02:23 7.9 °F /  -13.4 °C 1.9 °F /  -16.7 °C 1007.7 in /  34120.7 hPa WNW 6.4 mph /  10.3 km/h 3.1 mph /  5 km/h 66 % 0.0 in /  0 mm 0.00 W/m2 CLR
02:28 7.8 °F /  -13.4 °C 1.9 °F /  -16.7 °C 1007.7 in /  34120.7 hPa WNW 1.9 mph /  3.1 km/h   66 % 0.0 in /  0 mm 0.00 W/m2 CLR
02:33 7.8 °F /  -13.4 °C 1.8 °F /  -16.8 °C 1007.6 in /  34117.3 hPa WNW 1.9 mph /  3.1 km/h 0.6 mph /  1 km/h 66 % 0.0 in /  0 mm 0.00 W/m2 CLR
02:38 7.7 °F /  -13.5 °C 1.9 °F /  -16.7 °C 1007.6 in /  34117.3 hPa SW 5.6 mph /  9 km/h 1.9 mph /  3.1 km/h 67 % 0.0 in /  0 mm 0.00 W/m2 CLR
02:43 7.6 °F /  -13.6 °C 1.8 °F /  -16.8 °C 1007.6 in /  34117.3 hPa WSW 9.7 mph /  15.6 km/h 7.4 mph /  11.9 km/h 67 % 0.0 in /  0 mm 0.00 W/m2 CLR
02:49 7.4 °F /  -13.7 °C 1.9 °F /  -16.7 °C 1007.5 in /  34114 hPa WSW 5.6 mph /  9 km/h 3.7 mph /  6 km/h 68 % 0.0 in /  0 mm 0.00 W/m2 CLR
02:53 7.3 °F /  -13.7 °C 1.8 °F /  -16.8 °C 1007.5 in /  34114 hPa WSW 3.7 mph /  6 km/h 1.9 mph /  3.1 km/h 68 % 0.0 in /  0 mm 0.00 W/m2 CLR
02:58 7.2 °F /  -13.8 °C 1.7 °F /  -16.8 °C 1007.6 in /  34117.3 hPa WSW 3.2 mph /  5.1 km/h 1.3 mph /  2.1 km/h 68 % 0.0 in /  0 mm 0.00 W/m2 CLR
03:04 7.1 °F /  -13.8 °C 1.8 °F /  -16.8 °C 1007.8 in /  34124.1 hPa West 8.0 mph /  12.9 km/h 6.8 mph /  10.9 km/h 69 % 0.0 in /  0 mm 0.00 W/m2 CLR
03:08 6.9 °F /  -13.9 °C 1.7 °F /  -16.8 °C 1007.8 in /  34124.1 hPa SW 9.7 mph /  15.6 km/h 6.3 mph /  10.1 km/h 69 % 0.0 in /  0 mm 0.00 W/m2 CLR
03:14 6.8 °F /  -14 °C 1.7 °F /  -16.8 °C 1007.7 in /  34120.7 hPa West 13.0 mph /  20.9 km/h 9.5 mph /  15.3 km/h 70 % 0.0 in /  0 mm 0.00 W/m2 CLR
03:19 6.6 °F /  -14.1 °C 1.7 °F /  -16.8 °C 1007.6 in /  34117.3 hPa WSW 9.7 mph /  15.6 km/h 7.1 mph /  11.4 km/h 71 % 0.0 in /  0 mm 0.00 W/m2 CLR
03:23 6.6 °F /  -14.1 °C 1.7 °F /  -16.8 °C 1007.5 in /  34114 hPa WSW 9.7 mph /  15.6 km/h 7.6 mph /  12.2 km/h 71 % 0.0 in /  0 mm 0.00 W/m2 CLR
03:29 6.4 °F /  -14.2 °C 1.6 °F /  -16.9 °C 1007.6 in /  34117.3 hPa WSW 8.0 mph /  12.9 km/h 4.7 mph /  7.6 km/h 71 % 0.0 in /  0 mm 0.00 W/m2 CLR
03:34 6.3 °F /  -14.3 °C 1.7 °F /  -16.8 °C 1007.6 in /  34117.3 hPa WSW 11.3 mph /  18.2 km/h 8.0 mph /  12.9 km/h 72 % 0.0 in /  0 mm 0.00 W/m2 CLR
03:38 6.3 °F /  -14.3 °C 1.6 °F /  -16.9 °C 1007.6 in /  34117.3 hPa WSW 11.1 mph /  17.9 km/h 6.0 mph /  9.7 km/h 72 % 0.0 in /  0 mm 0.00 W/m2 CLR
03:44 6.3 °F /  -14.3 °C 1.6 °F /  -16.9 °C 1007.7 in /  34120.7 hPa West 8.0 mph /  12.9 km/h 5.8 mph /  9.3 km/h 72 % 0.0 in /  0 mm 0.00 W/m2 CLR
03:49 6.3 °F /  -14.3 °C 1.6 °F /  -16.9 °C 1007.6 in /  34117.3 hPa WSW 8.0 mph /  12.9 km/h 5.5 mph /  8.9 km/h 72 % 0.0 in /  0 mm 0.00 W/m2 CLR
03:53 6.3 °F /  -14.3 °C 1.7 °F /  -16.8 °C 1007.8 in /  34124.1 hPa West 4.8 mph /  7.7 km/h 2.6 mph /  4.2 km/h 72 % 0.0 in /  0 mm 0.00 W/m2 CLR
03:59 6.3 °F /  -14.3 °C 1.7 °F /  -16.8 °C 1007.8 in /  34124.1 hPa SW 9.7 mph /  15.6 km/h 8.5 mph /  13.7 km/h 72 % 0.0 in /  0 mm 0.00 W/m2 CLR
04:04 6.2 °F /  -14.3 °C 1.7 °F /  -16.8 °C 1007.8 in /  34124.1 hPa WSW 13.0 mph /  20.9 km/h 9.2 mph /  14.8 km/h 73 % 0.0 in /  0 mm 0.00 W/m2 CLR
04:09 6.1 °F /  -14.4 °C 1.6 °F /  -16.9 °C 1007.8 in /  34124.1 hPa SW 14.8 mph /  23.8 km/h 9.2 mph /  14.8 km/h 73 % 0.0 in /  0 mm 0.00 W/m2 CLR
04:14 6.0 °F /  -14.4 °C 1.5 °F /  -16.9 °C 1007.8 in /  34124.1 hPa SW 14.8 mph /  23.8 km/h 11.1 mph /  17.9 km/h 73 % 0.0 in /  0 mm 0.00 W/m2 CLR
04:19 6.0 °F /  -14.4 °C 1.7 °F /  -16.8 °C 1007.7 in /  34120.7 hPa WSW 13.0 mph /  20.9 km/h 8.8 mph /  14.2 km/h 74 % 0.0 in /  0 mm 0.00 W/m2 CLR
04:24 6.0 °F /  -14.4 °C 1.7 °F /  -16.8 °C 1007.6 in /  34117.3 hPa WSW 13.0 mph /  20.9 km/h 10.5 mph /  16.9 km/h 74 % 0.0 in /  0 mm 0.00 W/m2 CLR
04:29 5.9 °F /  -14.5 °C 1.7 °F /  -16.8 °C 1007.6 in /  34117.3 hPa West 13.0 mph /  20.9 km/h 9.7 mph /  15.6 km/h 74 % 0.0 in /  0 mm 0.00 W/m2 CLR
04:33 5.9 °F /  -14.5 °C 1.7 °F /  -16.8 °C 1007.5 in /  34114 hPa SW 14.8 mph /  23.8 km/h 8.5 mph /  13.7 km/h 74 % 0.0 in /  0 mm 0.00 W/m2 CLR
04:38 5.9 °F /  -14.5 °C 1.7 °F /  -16.8 °C 1007.6 in /  34117.3 hPa SW 11.3 mph /  18.2 km/h 7.4 mph /  11.9 km/h 74 % 0.0 in /  0 mm 0.00 W/m2 CLR
04:43 5.8 °F /  -14.6 °C 1.7 °F /  -16.8 °C 1007.7 in /  34120.7 hPa WSW 11.3 mph /  18.2 km/h 7.9 mph /  12.7 km/h 75 % 0.0 in /  0 mm 0.00 W/m2 CLR
04:48 5.8 °F /  -14.6 °C 1.7 °F /  -16.8 °C 1007.6 in /  34117.3 hPa SW 11.3 mph /  18.2 km/h 9.3 mph /  15 km/h 75 % 0.0 in /  0 mm 0.00 W/m2 CLR
04:53 5.8 °F /  -14.6 °C 1.7 °F /  -16.8 °C 1007.7 in /  34120.7 hPa WSW 11.3 mph /  18.2 km/h 9.5 mph /  15.3 km/h 75 % 0.0 in /  0 mm 0.00 W/m2 CLR
04:58 5.9 °F /  -14.5 °C 2.0 °F /  -16.7 °C 1007.7 in /  34120.7 hPa WSW 11.3 mph /  18.2 km/h 7.7 mph /  12.4 km/h 76 % 0.0 in /  0 mm 0.00 W/m2 CLR
05:04 5.9 °F /  -14.5 °C 2.1 °F /  -16.6 °C 1007.9 in /  34127.5 hPa WSW 18.5 mph /  29.8 km/h 14.0 mph /  22.5 km/h 76 % 0.0 in /  0 mm 0.00 W/m2 CLR
05:08 5.9 °F /  -14.5 °C 1.8 °F /  -16.8 °C 1007.7 in /  34120.7 hPa WSW 17.7 mph /  28.5 km/h 12.9 mph /  20.8 km/h 75 % 0.0 in /  0 mm 0.00 W/m2 CLR
05:13 5.9 °F /  -14.5 °C 2.0 °F /  -16.7 °C 1007.9 in /  34127.5 hPa WSW 12.9 mph /  20.8 km/h 9.7 mph /  15.6 km/h 76 % 0.0 in /  0 mm 0.00 W/m2 CLR
05:19 5.8 °F /  -14.6 °C 1.9 °F /  -16.7 °C 1008.1 in /  34134.3 hPa WSW 18.5 mph /  29.8 km/h 13.4 mph /  21.6 km/h 76 % 0.0 in /  0 mm 0.00 W/m2 CLR
05:23 5.8 °F /  -14.6 °C 1.9 °F /  -16.7 °C 1008.2 in /  34137.7 hPa WSW 19.3 mph /  31.1 km/h 15.8 mph /  25.4 km/h 76 % 0.0 in /  0 mm 0.00 W/m2 CLR
05:28 5.8 °F /  -14.6 °C 2.1 °F /  -16.6 °C 1008.2 in /  34137.7 hPa WSW 19.3 mph /  31.1 km/h 15.3 mph /  24.6 km/h 77 % 0.0 in /  0 mm 0.00 W/m2 CLR
05:34 5.7 °F /  -14.6 °C 1.9 °F /  -16.7 °C 1008.2 in /  34137.7 hPa SSW 13.0 mph /  20.9 km/h 8.2 mph /  13.2 km/h 77 % 0.0 in /  0 mm 0.00 W/m2 CLR
05:38 5.6 °F /  -14.7 °C 1.9 °F /  -16.7 °C 1008.3 in /  34141 hPa WSW 16.7 mph /  26.9 km/h 12.1 mph /  19.5 km/h 77 % 0.0 in /  0 mm 0.00 W/m2 CLR
05:43 5.6 °F /  -14.7 °C 2.0 °F /  -16.7 °C 1008.2 in /  34137.7 hPa SW 16.7 mph /  26.9 km/h 10.8 mph /  17.4 km/h 78 % 0.0 in /  0 mm 0.00 W/m2 CLR
05:49 5.4 °F /  -14.8 °C 1.9 °F /  -16.7 °C 1008.3 in /  34141 hPa South 16.1 mph /  25.9 km/h 11.9 mph /  19.2 km/h 78 % 0.0 in /  0 mm 0.00 W/m2 CLR
05:53 5.4 °F /  -14.8 °C 2.1 °F /  -16.6 °C 1008.2 in /  34137.7 hPa WSW 18.5 mph /  29.8 km/h 9.5 mph /  15.3 km/h 79 % 0.0 in /  0 mm 0.00 W/m2 CLR
05:59 5.4 °F /  -14.8 °C 2.1 °F /  -16.6 °C 1008.4 in /  34144.4 hPa WSW 18.5 mph /  29.8 km/h 12.1 mph /  19.5 km/h 79 % 0.0 in /  0 mm 0.00 W/m2 CLR
06:04 5.5 °F /  -14.7 °C 2.2 °F /  -16.6 °C 1008.3 in /  34141 hPa WSW 13.0 mph /  20.9 km/h 9.3 mph /  15 km/h 79 % 0.0 in /  0 mm 0.00 W/m2 CLR
06:08 5.5 °F /  -14.7 °C 2.2 °F /  -16.6 °C 1008.4 in /  34144.4 hPa SW 20.9 mph /  33.6 km/h 15.4 mph /  24.8 km/h 79 % 0.0 in /  0 mm 0.00 W/m2 CLR
06:14 5.5 °F /  -14.7 °C 2.2 °F /  -16.6 °C 1008.4 in /  34144.4 hPa WSW 16.1 mph /  25.9 km/h 9.7 mph /  15.6 km/h 79 % 0.0 in /  0 mm 0.00 W/m2 CLR
06:18 5.5 °F /  -14.7 °C 2.2 °F /  -16.6 °C 1008.6 in /  34151.2 hPa West 14.8 mph /  23.8 km/h 7.9 mph /  12.7 km/h 79 % 0.0 in /  0 mm 0.00 W/m2 CLR
06:23 5.4 °F /  -14.8 °C 2.1 °F /  -16.6 °C 1008.4 in /  34144.4 hPa WSW 16.7 mph /  26.9 km/h 8.8 mph /  14.2 km/h 79 % 0.0 in /  0 mm 0.00 W/m2 CLR
06:29 5.5 °F /  -14.7 °C 2.2 °F /  -16.6 °C 1008.4 in /  34144.4 hPa WSW 18.5 mph /  29.8 km/h 12.4 mph /  20 km/h 79 % 0.0 in /  0 mm 0.00 W/m2 CLR
06:34 5.6 °F /  -14.7 °C 2.2 °F /  -16.6 °C 1008.5 in /  34147.8 hPa SW 18.5 mph /  29.8 km/h 11.9 mph /  19.2 km/h 79 % 0.0 in /  0 mm 0.00 W/m2 CLR
06:39 5.6 °F /  -14.7 °C 2.3 °F /  -16.5 °C 1008.4 in /  34144.4 hPa SW 19.3 mph /  31.1 km/h 12.7 mph /  20.4 km/h 79 % 0.0 in /  0 mm 5.00 W/m2 CLR
06:44 5.7 °F /  -14.6 °C 2.5 °F /  -16.4 °C 1008.4 in /  34144.4 hPa SSW 20.4 mph /  32.8 km/h 12.1 mph /  19.5 km/h 80 % 0.0 in /  0 mm 7.00 W/m2 CLR
06:49 5.8 °F /  -14.6 °C 2.6 °F /  -16.3 °C 1008.4 in /  34144.4 hPa SW 20.9 mph /  33.6 km/h 16.3 mph /  26.2 km/h 80 % 0.0 in /  0 mm 9.00 W/m2 SCT
06:54 5.8 °F /  -14.6 °C 2.4 °F /  -16.4 °C 1008.5 in /  34147.8 hPa SW 19.3 mph /  31.1 km/h 15.3 mph /  24.6 km/h 79 % 0.0 in /  0 mm 12.00 W/m2 SCT
06:59 6.1 °F /  -14.4 °C 2.7 °F /  -16.3 °C 1008.6 in /  34151.2 hPa WSW 20.9 mph /  33.6 km/h 16.3 mph /  26.2 km/h 79 % 0.0 in /  0 mm 18.00 W/m2 SCT
07:04 6.4 °F /  -14.2 °C 2.9 °F /  -16.2 °C 1008.4 in /  34144.4 hPa SW 18.5 mph /  29.8 km/h 13.7 mph /  22 km/h 78 % 0.0 in /  0 mm 23.00 W/m2 SCT
07:08 6.6 °F /  -14.1 °C 3.1 °F /  -16.1 °C 1008.5 in /  34147.8 hPa WSW 17.7 mph /  28.5 km/h 13.5 mph /  21.7 km/h 78 % 0.0 in /  0 mm 25.00 W/m2 SCT
07:13 6.8 °F /  -14 °C 3.0 °F /  -16.1 °C 1008.3 in /  34141 hPa WSW 22.5 mph /  36.2 km/h 15.0 mph /  24.1 km/h 77 % 0.0 in /  0 mm 37.00 W/m2 SCT
07:18 6.9 °F /  -13.9 °C 3.0 °F /  -16.1 °C 1008.2 in /  34137.7 hPa WSW 18.5 mph /  29.8 km/h 14.2 mph /  22.9 km/h 76 % 0.0 in /  0 mm 47.00 W/m2 SCT
07:23 7.1 °F /  -13.8 °C 3.1 °F /  -16.1 °C 1008.2 in /  34137.7 hPa WSW 17.7 mph /  28.5 km/h 11.9 mph /  19.2 km/h 76 % 0.0 in /  0 mm 58.00 W/m2 SCT
07:28 7.1 °F /  -13.8 °C 3.1 °F /  -16.1 °C 1008.4 in /  34144.4 hPa SW 25.7 mph /  41.4 km/h 13.5 mph /  21.7 km/h 76 % 0.0 in /  0 mm 76.00 W/m2 SCT
07:34 7.0 °F /  -13.9 °C 3.1 °F /  -16.1 °C 1008.4 in /  34144.4 hPa SW 19.3 mph /  31.1 km/h 13.0 mph /  20.9 km/h 76 % 0.0 in /  0 mm 90.00 W/m2 FEW
07:38 6.9 °F /  -13.9 °C 2.9 °F /  -16.2 °C 1008.4 in /  34144.4 hPa WSW 19.3 mph /  31.1 km/h 16.3 mph /  26.2 km/h 76 % 0.0 in /  0 mm 107.00 W/m2 FEW
07:43 7.0 °F /  -13.9 °C 3.1 °F /  -16.1 °C 1008.3 in /  34141 hPa WSW 18.5 mph /  29.8 km/h 14.0 mph /  22.5 km/h 76 % 0.0 in /  0 mm 125.00 W/m2 FEW
07:49 7.2 °F /  -13.8 °C 3.3 °F /  -15.9 °C 1008.3 in /  34141 hPa WSW 22.5 mph /  36.2 km/h 16.1 mph /  25.9 km/h 76 % 0.0 in /  0 mm 142.00 W/m2 FEW
07:53 7.4 °F /  -13.7 °C 3.4 °F /  -15.9 °C 1008.4 in /  34144.4 hPa SW 20.4 mph /  32.8 km/h 11.9 mph /  19.2 km/h 76 % 0.0 in /  0 mm 146.00 W/m2 FEW
07:58 7.6 °F /  -13.6 °C 3.4 °F /  -15.9 °C 1008.5 in /  34147.8 hPa WSW 18.5 mph /  29.8 km/h 12.4 mph /  20 km/h 75 % 0.0 in /  0 mm 142.00 W/m2 FEW
08:04 7.8 °F /  -13.4 °C 3.4 °F /  -15.9 °C 1008.6 in /  34151.2 hPa WSW 16.7 mph /  26.9 km/h 13.0 mph /  20.9 km/h 74 % 0.0 in /  0 mm 151.00 W/m2 FEW
08:08 7.9 °F /  -13.4 °C 3.6 °F /  -15.8 °C 1008.6 in /  34151.2 hPa WSW 19.3 mph /  31.1 km/h 14.3 mph /  23 km/h 74 % 0.0 in /  0 mm 174.00 W/m2 FEW
08:13 8.1 °F /  -13.3 °C 3.8 °F /  -15.7 °C 1008.6 in /  34151.2 hPa WSW 19.3 mph /  31.1 km/h 13.8 mph /  22.2 km/h 74 % 0.0 in /  0 mm 206.00 W/m2 FEW
08:19 8.4 °F /  -13.1 °C 3.9 °F /  -15.6 °C 1008.7 in /  34154.6 hPa SW 18.5 mph /  29.8 km/h 13.5 mph /  21.7 km/h 73 % 0.0 in /  0 mm 221.00 W/m2 CLR
08:23 8.7 °F /  -12.9 °C 3.9 °F /  -15.6 °C 1008.7 in /  34154.6 hPa WSW 20.4 mph /  32.8 km/h 14.0 mph /  22.5 km/h 72 % 0.0 in /  0 mm 234.00 W/m2 CLR
08:28 9.0 °F /  -12.8 °C 4.0 °F /  -15.6 °C 1008.6 in /  34151.2 hPa WSW 22.5 mph /  36.2 km/h 14.0 mph /  22.5 km/h 71 % 0.0 in /  0 mm 248.00 W/m2 CLR
08:34 9.3 °F /  -12.6 °C 4.1 °F /  -15.5 °C 1008.9 in /  34161.4 hPa West 16.7 mph /  26.9 km/h 8.5 mph /  13.7 km/h 70 % 0.0 in /  0 mm 265.00 W/m2 CLR
08:38 9.6 °F /  -12.4 °C 4.3 °F /  -15.4 °C 1008.9 in /  34161.4 hPa West 16.7 mph /  26.9 km/h 11.7 mph /  18.8 km/h 70 % 0.0 in /  0 mm 276.00 W/m2 CLR
08:44 10.0 °F /  -12.2 °C 4.6 °F /  -15.2 °C 1009.0 in /  34164.7 hPa WNW 18.5 mph /  29.8 km/h 12.4 mph /  20 km/h 69 % 0.0 in /  0 mm 288.00 W/m2 CLR
08:49 10.3 °F /  -12.1 °C 4.7 °F /  -15.2 °C 1009.0 in /  34164.7 hPa West 18.5 mph /  29.8 km/h 13.2 mph /  21.2 km/h 68 % 0.0 in /  0 mm 299.00 W/m2 CLR
08:53 10.6 °F /  -11.9 °C 4.7 °F /  -15.2 °C 1008.9 in /  34161.4 hPa WSW 14.5 mph /  23.3 km/h 11.3 mph /  18.2 km/h 67 % 0.0 in /  0 mm 306.00 W/m2 CLR
08:59 10.8 °F /  -11.8 °C 4.7 °F /  -15.2 °C 1009.1 in /  34168.1 hPa WSW 14.8 mph /  23.8 km/h 7.7 mph /  12.4 km/h 66 % 0.0 in /  0 mm 313.00 W/m2 CLR
09:04 11.1 °F /  -11.6 °C 4.8 °F /  -15.1 °C 1009.1 in /  34168.1 hPa SW 27.8 mph /  44.7 km/h 14.3 mph /  23 km/h 65 % 0.0 in /  0 mm 318.00 W/m2 CLR
09:08 11.3 °F /  -11.5 °C 4.9 °F /  -15.1 °C 1009.2 in /  34171.5 hPa WSW 14.8 mph /  23.8 km/h 10.5 mph /  16.9 km/h 65 % 0.0 in /  0 mm 322.00 W/m2 CLR
09:14 11.5 °F /  -11.4 °C 4.9 °F /  -15.1 °C 1009.1 in /  34168.1 hPa West 16.7 mph /  26.9 km/h 12.4 mph /  20 km/h 64 % 0.0 in /  0 mm 323.00 W/m2 FEW
09:19 11.8 °F /  -11.2 °C 5.0 °F /  -15 °C 1009.1 in /  34168.1 hPa WNW 13.0 mph /  20.9 km/h 8.2 mph /  13.2 km/h 63 % 0.0 in /  0 mm 323.00 W/m2 FEW
09:24 12.2 °F /  -11 °C 5.1 °F /  -14.9 °C 1009.1 in /  34168.1 hPa SW 19.3 mph /  31.1 km/h 13.4 mph /  21.6 km/h 62 % 0.0 in /  0 mm 325.00 W/m2 FEW
09:29 12.4 °F /  -10.9 °C 5.1 °F /  -14.9 °C 1009.2 in /  34171.5 hPa WSW 18.5 mph /  29.8 km/h 12.6 mph /  20.3 km/h 61 % 0.0 in /  0 mm 327.00 W/m2 FEW
09:34 12.7 °F /  -10.7 °C 5.2 °F /  -14.9 °C 1009.4 in /  34178.3 hPa WSW 18.5 mph /  29.8 km/h 13.7 mph /  22 km/h 60 % 0.0 in /  0 mm 332.00 W/m2 FEW
09:38 12.9 °F /  -10.6 °C 5.3 °F /  -14.8 °C 1009.5 in /  34181.7 hPa West 18.5 mph /  29.8 km/h 10.8 mph /  17.4 km/h 60 % 0.0 in /  0 mm 338.00 W/m2 FEW
09:43 13.1 °F /  -10.5 °C 5.3 °F /  -14.8 °C 1009.4 in /  34178.3 hPa West 16.7 mph /  26.9 km/h 10.1 mph /  16.3 km/h 59 % 0.0 in /  0 mm 345.00 W/m2 FEW
09:48 13.3 °F /  -10.4 °C 5.2 °F /  -14.9 °C 1009.5 in /  34181.7 hPa WSW 18.5 mph /  29.8 km/h 14.0 mph /  22.5 km/h 58 % 0.0 in /  0 mm 360.00 W/m2 FEW
09:53 13.6 °F /  -10.2 °C 5.5 °F /  -14.7 °C 1009.6 in /  34185.1 hPa West 16.1 mph /  25.9 km/h 10.9 mph /  17.5 km/h 58 % 0.0 in /  0 mm 376.00 W/m2 FEW
09:58 13.8 °F /  -10.1 °C 5.4 °F /  -14.8 °C 1009.6 in /  34185.1 hPa WSW 9.3 mph /  15 km/h 5.3 mph /  8.5 km/h 57 % 0.0 in /  0 mm 394.00 W/m2 FEW
10:03 14.0 °F /  -10 °C 5.3 °F /  -14.8 °C 1009.6 in /  34185.1 hPa WSW 13.0 mph /  20.9 km/h 9.5 mph /  15.3 km/h 56 % 0.0 in /  0 mm 417.00 W/m2 FEW
10:09 14.3 °F /  -9.8 °C 5.6 °F /  -14.7 °C 1009.6 in /  34185.1 hPa WNW 16.7 mph /  26.9 km/h 9.7 mph /  15.6 km/h 56 % 0.0 in /  0 mm 413.00 W/m2 FEW
10:13 14.4 °F /  -9.8 °C 5.2 °F /  -14.9 °C 1009.6 in /  34185.1 hPa West 22.5 mph /  36.2 km/h 18.3 mph /  29.5 km/h 54 % 0.0 in /  0 mm 469.00 W/m2 FEW
10:18 14.6 °F /  -9.7 °C 5.1 °F /  -14.9 °C 1009.5 in /  34181.7 hPa WSW 18.5 mph /  29.8 km/h 11.4 mph /  18.3 km/h 53 % 0.0 in /  0 mm 492.00 W/m2 CLR
10:24 14.8 °F /  -9.6 °C 5.3 °F /  -14.8 °C 1009.6 in /  34185.1 hPa SW 13.0 mph /  20.9 km/h 10.6 mph /  17.1 km/h 53 % 0.0 in /  0 mm 515.00 W/m2 CLR
10:28 15.1 °F /  -9.4 °C 5.3 °F /  -14.8 °C 1009.6 in /  34185.1 hPa West 16.7 mph /  26.9 km/h 13.0 mph /  20.9 km/h 52 % 0.0 in /  0 mm 527.00 W/m2 CLR
10:33 15.3 °F /  -9.3 °C 5.5 °F /  -14.7 °C 1009.7 in /  34188.4 hPa WNW 9.7 mph /  15.6 km/h 6.8 mph /  10.9 km/h 52 % 0.0 in /  0 mm 545.00 W/m2 CLR
10:39 15.7 °F /  -9.1 °C 5.6 °F /  -14.7 °C 1009.6 in /  34185.1 hPa West 14.8 mph /  23.8 km/h 9.8 mph /  15.8 km/h 51 % 0.0 in /  0 mm 559.00 W/m2 CLR
10:43 15.9 °F /  -8.9 °C 5.4 °F /  -14.8 °C 1009.6 in /  34185.1 hPa SW 12.9 mph /  20.8 km/h 7.7 mph /  12.4 km/h 50 % 0.0 in /  0 mm 563.00 W/m2 CLR
10:48 16.2 °F /  -8.8 °C 5.2 °F /  -14.9 °C 1009.5 in /  34181.7 hPa SW 14.8 mph /  23.8 km/h 7.9 mph /  12.7 km/h 48 % 0.0 in /  0 mm 570.00 W/m2 CLR
10:54 16.4 °F /  -8.7 °C 5.1 °F /  -14.9 °C 1009.5 in /  34181.7 hPa SW 20.9 mph /  33.6 km/h 14.2 mph /  22.9 km/h 47 % 0.0 in /  0 mm 578.00 W/m2 CLR
10:59 16.7 °F /  -8.5 °C 5.3 °F /  -14.8 °C 1009.4 in /  34178.3 hPa WSW 17.7 mph /  28.5 km/h 9.0 mph /  14.5 km/h 47 % 0.0 in /  0 mm 585.00 W/m2 CLR
11:03 16.8 °F /  -8.4 °C 5.4 °F /  -14.8 °C 1009.5 in /  34181.7 hPa West 14.8 mph /  23.8 km/h 6.8 mph /  10.9 km/h 47 % 0.0 in /  0 mm 592.00 W/m2 CLR
11:09 17.1 °F /  -8.3 °C 5.3 °F /  -14.8 °C 1009.3 in /  34174.9 hPa WSW 16.7 mph /  26.9 km/h 10.5 mph /  16.9 km/h 46 % 0.0 in /  0 mm 599.00 W/m2 CLR
11:14 17.2 °F /  -8.2 °C 5.1 °F /  -14.9 °C 1009.3 in /  34174.9 hPa West 12.9 mph /  20.8 km/h 7.9 mph /  12.7 km/h 45 % 0.0 in /  0 mm 608.00 W/m2 CLR
11:18 17.3 °F /  -8.2 °C 4.9 °F /  -15.1 °C 1009.3 in /  34174.9 hPa West 19.3 mph /  31.1 km/h 14.0 mph /  22.5 km/h 44 % 0.0 in /  0 mm 615.00 W/m2 CLR
11:24 17.3 °F /  -8.2 °C 4.9 °F /  -15.1 °C 1009.3 in /  34174.9 hPa WSW 20.4 mph /  32.8 km/h 12.2 mph /  19.6 km/h 44 % 0.0 in /  0 mm 621.00 W/m2 CLR
11:29 17.6 °F /  -8 °C 5.2 °F /  -14.9 °C 1009.3 in /  34174.9 hPa West 14.8 mph /  23.8 km/h 11.6 mph /  18.7 km/h 44 % 0.0 in /  0 mm 629.00 W/m2 CLR
11:34 17.8 °F /  -7.9 °C 5.0 °F /  -15 °C 1009.3 in /  34174.9 hPa SW 18.5 mph /  29.8 km/h 12.4 mph /  20 km/h 43 % 0.0 in /  0 mm 638.00 W/m2 CLR
11:39 17.8 °F /  -7.9 °C 5.1 °F /  -14.9 °C 1009.2 in /  34171.5 hPa SW 20.9 mph /  33.6 km/h 14.2 mph /  22.9 km/h 43 % 0.0 in /  0 mm 638.00 W/m2 CLR
11:44 17.9 °F /  -7.8 °C 4.8 °F /  -15.1 °C 1009.2 in /  34171.5 hPa WSW 24.1 mph /  38.8 km/h 17.7 mph /  28.5 km/h 42 % 0.0 in /  0 mm 636.00 W/m2 CLR
11:49 17.9 °F /  -7.8 °C 4.5 °F /  -15.3 °C 1009.1 in /  34168.1 hPa WSW 24.1 mph /  38.8 km/h 18.3 mph /  29.5 km/h 41 % 0.0 in /  0 mm 633.00 W/m2 CLR
11:54 18.1 °F /  -7.7 °C 5.3 °F /  -14.8 °C 1008.9 in /  34161.4 hPa West 17.7 mph /  28.5 km/h 11.4 mph /  18.3 km/h 43 % 0.0 in /  0 mm 647.00 W/m2 CLR
11:59 18.3 °F /  -7.6 °C 4.8 °F /  -15.1 °C 1008.9 in /  34161.4 hPa WSW 17.7 mph /  28.5 km/h 11.4 mph /  18.3 km/h 41 % 0.0 in /  0 mm 657.00 W/m2 CLR
12:04 18.4 °F /  -7.6 °C 4.9 °F /  -15.1 °C 1008.8 in /  34158 hPa SW 19.3 mph /  31.1 km/h 12.9 mph /  20.8 km/h 41 % 0.0 in /  0 mm 617.00 W/m2 CLR
12:08 18.6 °F /  -7.4 °C 5.1 °F /  -14.9 °C 1008.7 in /  34154.6 hPa West 18.5 mph /  29.8 km/h 8.8 mph /  14.2 km/h 41 % 0.0 in /  0 mm 615.00 W/m2 CLR
12:13 18.6 °F /  -7.4 °C 5.1 °F /  -14.9 °C 1008.7 in /  34154.6 hPa West 16.1 mph /  25.9 km/h 14.3 mph /  23 km/h 41 % 0.0 in /  0 mm 642.00 W/m2 CLR
12:18 18.6 °F /  -7.4 °C 4.7 °F /  -15.2 °C 1008.6 in /  34151.2 hPa West 19.3 mph /  31.1 km/h 13.7 mph /  22 km/h 40 % 0.0 in /  0 mm 668.00 W/m2 CLR
12:23 18.8 °F /  -7.3 °C 4.9 °F /  -15.1 °C 1008.7 in /  34154.6 hPa West 22.2 mph /  35.7 km/h 11.9 mph /  19.2 km/h 40 % 0.0 in /  0 mm 633.00 W/m2 CLR
12:28 18.9 °F /  -7.3 °C 4.7 °F /  -15.2 °C 1008.7 in /  34154.6 hPa West 17.7 mph /  28.5 km/h 11.7 mph /  18.8 km/h 39 % 0.0 in /  0 mm 601.00 W/m2 CLR
12:33 19.1 °F /  -7.2 °C 4.4 °F /  -15.3 °C 1008.4 in /  34144.4 hPa WSW 19.3 mph /  31.1 km/h 14.3 mph /  23 km/h 38 % 0.0 in /  0 mm 575.00 W/m2 CLR
12:38 19.3 °F /  -7.1 °C 4.3 °F /  -15.4 °C 1008.4 in /  34144.4 hPa WSW 19.3 mph /  31.1 km/h 13.2 mph /  21.2 km/h 37 % 0.0 in /  0 mm 540.00 W/m2 FEW
12:44 19.4 °F /  -7 °C 4.3 °F /  -15.4 °C 1008.5 in /  34147.8 hPa West 13.0 mph /  20.9 km/h 9.7 mph /  15.6 km/h 37 % 0.0 in /  0 mm 540.00 W/m2 FEW
12:48 19.6 °F /  -6.9 °C 3.7 °F /  -15.7 °C 1008.5 in /  34147.8 hPa WSW 19.3 mph /  31.1 km/h 11.1 mph /  17.9 km/h 35 % 0.0 in /  0 mm 548.00 W/m2 FEW
12:53 19.7 °F /  -6.8 °C 3.8 °F /  -15.7 °C 1008.5 in /  34147.8 hPa West 18.5 mph /  29.8 km/h 12.2 mph /  19.6 km/h 35 % 0.0 in /  0 mm 599.00 W/m2 FEW
12:59 19.9 °F /  -6.7 °C 3.9 °F /  -15.6 °C 1008.5 in /  34147.8 hPa SW 18.5 mph /  29.8 km/h 14.2 mph /  22.9 km/h 35 % 0.0 in /  0 mm 566.00 W/m2 CLR
13:03 19.9 °F /  -6.7 °C 4.0 °F /  -15.6 °C 1008.5 in /  34147.8 hPa WNW 22.5 mph /  36.2 km/h 16.4 mph /  26.4 km/h 35 % 0.0 in /  0 mm 671.00 W/m2 CLR
13:08 20.1 °F /  -6.6 °C 4.1 °F /  -15.5 °C 1008.4 in /  34144.4 hPa West 18.5 mph /  29.8 km/h 6.6 mph /  10.6 km/h 35 % 0.0 in /  0 mm 671.00 W/m2 CLR
13:14 20.2 °F /  -6.6 °C 4.2 °F /  -15.4 °C 1008.2 in /  34137.7 hPa WNW 19.3 mph /  31.1 km/h 13.7 mph /  22 km/h 35 % 0.0 in /  0 mm 680.00 W/m2 CLR
13:18 20.2 °F /  -6.6 °C 3.8 °F /  -15.7 °C 1008.4 in /  34144.4 hPa NW 22.5 mph /  36.2 km/h 15.6 mph /  25.1 km/h 34 % 0.0 in /  0 mm 693.00 W/m2 CLR
13:23 20.2 °F /  -6.6 °C 3.8 °F /  -15.7 °C 1008.0 in /  34130.9 hPa SW 16.7 mph /  26.9 km/h 9.3 mph /  15 km/h 34 % 0.0 in /  0 mm 677.00 W/m2 CLR
13:29 20.4 °F /  -6.4 °C 3.6 °F /  -15.8 °C 1008.0 in /  34130.9 hPa West 24.1 mph /  38.8 km/h 10.6 mph /  17.1 km/h 33 % 0.0 in /  0 mm 663.00 W/m2 CLR
13:33 20.6 °F /  -6.3 °C 4.1 °F /  -15.5 °C 1008.1 in /  34134.3 hPa WSW 13.0 mph /  20.9 km/h 7.9 mph /  12.7 km/h 34 % 0.0 in /  0 mm 656.00 W/m2 CLR
13:38 20.7 °F /  -6.3 °C 3.8 °F /  -15.7 °C 1008.1 in /  34134.3 hPa WSW 24.1 mph /  38.8 km/h 17.4 mph /  28 km/h 33 % 0.0 in /  0 mm 645.00 W/m2 CLR
13:44 20.7 °F /  -6.3 °C 3.4 °F /  -15.9 °C 1007.9 in /  34127.5 hPa WSW 20.4 mph /  32.8 km/h 10.9 mph /  17.5 km/h 32 % 0.0 in /  0 mm 652.00 W/m2 CLR
13:49 20.7 °F /  -6.3 °C 3.8 °F /  -15.7 °C 1007.7 in /  34120.7 hPa West 22.5 mph /  36.2 km/h 15.9 mph /  25.6 km/h 33 % 0.0 in /  0 mm 645.00 W/m2 CLR
13:53 20.8 °F /  -6.2 °C 3.9 °F /  -15.6 °C 1007.7 in /  34120.7 hPa WSW 18.5 mph /  29.8 km/h 8.2 mph /  13.2 km/h 33 % 0.0 in /  0 mm 640.00 W/m2 CLR
13:59 20.9 °F /  -6.2 °C 4.1 °F /  -15.5 °C 1007.7 in /  34120.7 hPa West 19.3 mph /  31.1 km/h 6.9 mph /  11.1 km/h 33 % 0.0 in /  0 mm 628.00 W/m2 CLR
14:04 21.2 °F /  -6 °C 2.9 °F /  -16.2 °C 1007.8 in /  34124.1 hPa WNW 20.9 mph /  33.6 km/h 15.3 mph /  24.6 km/h 30 % 0.0 in /  0 mm 631.00 W/m2 CLR
14:09 21.1 °F /  -6.1 °C 3.3 °F /  -15.9 °C 1007.5 in /  34114 hPa WNW 20.9 mph /  33.6 km/h 13.8 mph /  22.2 km/h 31 % 0.0 in /  0 mm 534.00 W/m2 CLR
14:14 21.1 °F /  -6.1 °C 3.3 °F /  -15.9 °C 1007.4 in /  34110.6 hPa WSW 24.1 mph /  38.8 km/h 17.7 mph /  28.5 km/h 31 % 0.0 in /  0 mm 601.00 W/m2 CLR
14:19 21.3 °F /  -5.9 °C 3.4 °F /  -15.9 °C 1007.5 in /  34114 hPa WSW 25.7 mph /  41.4 km/h 14.6 mph /  23.5 km/h 31 % 0.0 in /  0 mm 615.00 W/m2 CLR
14:24 21.4 °F /  -5.9 °C 3.6 °F /  -15.8 °C 1007.5 in /  34114 hPa WSW 27.8 mph /  44.7 km/h 16.3 mph /  26.2 km/h 31 % 0.0 in /  0 mm 605.00 W/m2 CLR
14:29 21.4 °F /  -5.9 °C 3.6 °F /  -15.8 °C 1007.4 in /  34110.6 hPa WNW 25.9 mph /  41.7 km/h 16.3 mph /  26.2 km/h 31 % 0.0 in /  0 mm 587.00 W/m2 CLR
14:34 21.3 °F /  -5.9 °C 3.5 °F /  -15.8 °C 1007.5 in /  34114 hPa SW 25.9 mph /  41.7 km/h 15.8 mph /  25.4 km/h 31 % 0.0 in /  0 mm 585.00 W/m2 CLR
14:39 21.4 °F /  -5.9 °C 3.6 °F /  -15.8 °C 1007.3 in /  34107.2 hPa West 29.0 mph /  46.7 km/h 16.4 mph /  26.4 km/h 31 % 0.0 in /  0 mm 578.00 W/m2 CLR
14:43 21.4 °F /  -5.9 °C 3.6 °F /  -15.8 °C 1007.3 in /  34107.2 hPa West 25.9 mph /  41.7 km/h 15.6 mph /  25.1 km/h 31 % 0.0 in /  0 mm 540.00 W/m2 CLR
14:48 21.6 °F /  -5.8 °C 3.7 °F /  -15.7 °C 1007.3 in /  34107.2 hPa WSW 25.7 mph /  41.4 km/h 18.5 mph /  29.8 km/h 31 % 0.0 in /  0 mm 522.00 W/m2 CLR
14:53 21.7 °F /  -5.7 °C 3.8 °F /  -15.7 °C 1007.4 in /  34110.6 hPa West 20.9 mph /  33.6 km/h 15.4 mph /  24.8 km/h 31 % 0.0 in /  0 mm 529.00 W/m2 CLR
14:58 21.7 °F /  -5.7 °C 3.8 °F /  -15.7 °C 1007.3 in /  34107.2 hPa West 25.9 mph /  41.7 km/h 13.7 mph /  22 km/h 31 % 0.0 in /  0 mm 529.00 W/m2 CLR
15:03 21.8 °F /  -5.7 °C 3.9 °F /  -15.6 °C 1007.3 in /  34107.2 hPa WSW 25.9 mph /  41.7 km/h 15.1 mph /  24.3 km/h 31 % 0.0 in /  0 mm 526.00 W/m2 CLR
15:08 21.9 °F /  -5.6 °C 4.5 °F /  -15.3 °C 1007.3 in /  34107.2 hPa SSW 18.5 mph /  29.8 km/h 9.2 mph /  14.8 km/h 32 % 0.0 in /  0 mm 520.00 W/m2 CLR
15:13 22.2 °F /  -5.4 °C 4.2 °F /  -15.4 °C 1007.3 in /  34107.2 hPa WSW 24.1 mph /  38.8 km/h 19.1 mph /  30.7 km/h 31 % 0.0 in /  0 mm 504.00 W/m2 CLR
15:18 22.2 °F /  -5.4 °C 4.3 °F /  -15.4 °C 1007.3 in /  34107.2 hPa West 20.9 mph /  33.6 km/h 15.6 mph /  25.1 km/h 31 % 0.0 in /  0 mm 494.00 W/m2 CLR
15:23 22.3 °F /  -5.4 °C 4.3 °F /  -15.4 °C 1007.4 in /  34110.6 hPa West 27.8 mph /  44.7 km/h 18.2 mph /  29.3 km/h 31 % 0.0 in /  0 mm 476.00 W/m2 CLR
15:28 22.3 °F /  -5.4 °C 4.3 °F /  -15.4 °C 1007.2 in /  34103.8 hPa West 31.5 mph /  50.7 km/h 19.8 mph /  31.9 km/h 31 % 0.0 in /  0 mm 473.00 W/m2 CLR
15:34 22.3 °F /  -5.4 °C 4.4 °F /  -15.3 °C 1007.1 in /  34100.4 hPa SW 32.2 mph /  51.8 km/h 19.1 mph /  30.7 km/h 31 % 0.0 in /  0 mm 459.00 W/m2 CLR
15:38 22.4 °F /  -5.3 °C 4.9 °F /  -15.1 °C 1007.1 in /  34100.4 hPa WNW 18.5 mph /  29.8 km/h 10.6 mph /  17.1 km/h 32 % 0.0 in /  0 mm 448.00 W/m2 CLR
15:43 22.6 °F /  -5.2 °C 4.6 °F /  -15.2 °C 1007.1 in /  34100.4 hPa WNW 20.9 mph /  33.6 km/h 15.4 mph /  24.8 km/h 31 % 0.0 in /  0 mm 434.00 W/m2 CLR
15:49 22.7 °F /  -5.2 °C 4.7 °F /  -15.2 °C 1007.2 in /  34103.8 hPa West 24.1 mph /  38.8 km/h 13.0 mph /  20.9 km/h 31 % 0.0 in /  0 mm 418.00 W/m2 CLR
15:54 22.7 °F /  -5.2 °C 5.1 °F /  -14.9 °C 1007.2 in /  34103.8 hPa WSW 20.4 mph /  32.8 km/h 6.8 mph /  10.9 km/h 32 % 0.0 in /  0 mm 401.00 W/m2 CLR
15:58 22.8 °F /  -5.1 °C 5.2 °F /  -14.9 °C 1007.2 in /  34103.8 hPa West 25.9 mph /  41.7 km/h 18.7 mph /  30.1 km/h 32 % 0.0 in /  0 mm 390.00 W/m2 CLR
16:04 22.7 °F /  -5.2 °C 5.2 °F /  -14.9 °C 1007.2 in /  34103.8 hPa SW 11.3 mph /  18.2 km/h 9.0 mph /  14.5 km/h 32 % 0.0 in /  0 mm 380.00 W/m2 CLR
16:09 22.8 °F /  -5.1 °C 4.8 °F /  -15.1 °C 1007.1 in /  34100.4 hPa WNW 22.5 mph /  36.2 km/h 14.8 mph /  23.8 km/h 31 % 0.0 in /  0 mm 369.00 W/m2 CLR
16:13 22.8 °F /  -5.1 °C 4.8 °F /  -15.1 °C 1007.2 in /  34103.8 hPa SW 31.5 mph /  50.7 km/h 18.3 mph /  29.5 km/h 31 % 0.0 in /  0 mm 362.00 W/m2 CLR
16:19 22.6 °F /  -5.2 °C 4.6 °F /  -15.2 °C 1007.1 in /  34100.4 hPa SW 25.9 mph /  41.7 km/h 20.0 mph /  32.2 km/h 31 % 0.0 in /  0 mm 345.00 W/m2 CLR
16:24 22.6 °F /  -5.2 °C 4.6 °F /  -15.2 °C 1007.4 in /  34110.6 hPa West 22.5 mph /  36.2 km/h 14.0 mph /  22.5 km/h 31 % 0.0 in /  0 mm 325.00 W/m2 CLR
16:28 22.4 °F /  -5.3 °C 4.4 °F /  -15.3 °C 1007.3 in /  34107.2 hPa WSW 25.7 mph /  41.4 km/h 21.6 mph /  34.8 km/h 31 % 0.0 in /  0 mm 308.00 W/m2 CLR
16:34 22.4 °F /  -5.3 °C 4.4 °F /  -15.3 °C 1007.4 in /  34110.6 hPa SSW 22.2 mph /  35.7 km/h 14.8 mph /  23.8 km/h 31 % 0.0 in /  0 mm 297.00 W/m2 CLR
16:39 22.3 °F /  -5.4 °C 4.4 °F /  -15.3 °C 1007.6 in /  34117.3 hPa West 25.7 mph /  41.4 km/h 16.3 mph /  26.2 km/h 31 % 0.0 in /  0 mm 283.00 W/m2 CLR
16:44 22.2 °F /  -5.4 °C 4.7 °F /  -15.2 °C 1007.5 in /  34114 hPa NW 25.7 mph /  41.4 km/h 16.6 mph /  26.7 km/h 32 % 0.0 in /  0 mm 274.00 W/m2 CLR
16:49 22.1 °F /  -5.5 °C 4.6 °F /  -15.2 °C 1007.6 in /  34117.3 hPa West 29.6 mph /  47.6 km/h 18.7 mph /  30.1 km/h 32 % 0.0 in /  0 mm 257.00 W/m2 CLR
16:54 21.9 °F /  -5.6 °C 4.5 °F /  -15.3 °C 1007.6 in /  34117.3 hPa West 20.9 mph /  33.6 km/h 10.1 mph /  16.3 km/h 32 % 0.0 in /  0 mm 237.00 W/m2 CLR
16:59 21.9 °F /  -5.6 °C 4.5 °F /  -15.3 °C 1007.5 in /  34114 hPa WSW 22.5 mph /  36.2 km/h 15.4 mph /  24.8 km/h 32 % 0.0 in /  0 mm 209.00 W/m2 CLR
17:03 21.9 °F /  -5.6 °C 4.5 °F /  -15.3 °C 1007.5 in /  34114 hPa SW 13.0 mph /  20.9 km/h 9.7 mph /  15.6 km/h 32 % 0.0 in /  0 mm 179.00 W/m2 CLR
17:08 21.8 °F /  -5.7 °C 4.8 °F /  -15.1 °C 1007.5 in /  34114 hPa WSW 32.2 mph /  51.8 km/h 17.1 mph /  27.5 km/h 33 % 0.0 in /  0 mm 153.00 W/m2 CLR
17:13 21.5 °F /  -5.8 °C 4.1 °F /  -15.5 °C 1007.8 in /  34124.1 hPa WSW 24.1 mph /  38.8 km/h 16.3 mph /  26.2 km/h 32 % 0.0 in /  0 mm 155.00 W/m2 CLR
17:18 21.2 °F /  -6 °C 3.8 °F /  -15.7 °C 1007.7 in /  34120.7 hPa West 18.5 mph /  29.8 km/h 13.4 mph /  21.6 km/h 32 % 0.0 in /  0 mm 130.00 W/m2 CLR
17:23 21.1 °F /  -6.1 °C 3.7 °F /  -15.7 °C 1007.9 in /  34127.5 hPa WSW 17.7 mph /  28.5 km/h 11.3 mph /  18.2 km/h 32 % 0.0 in /  0 mm 105.00 W/m2 CLR
17:28 20.8 °F /  -6.2 °C 3.1 °F /  -16.1 °C 1007.9 in /  34127.5 hPa West 24.1 mph /  38.8 km/h 18.2 mph /  29.3 km/h 31 % 0.0 in /  0 mm 81.00 W/m2 CLR
17:34 20.7 °F /  -6.3 °C 3.4 °F /  -15.9 °C 1007.8 in /  34124.1 hPa WNW 16.7 mph /  26.9 km/h 12.7 mph /  20.4 km/h 32 % 0.0 in /  0 mm 74.00 W/m2 FEW
17:38 20.6 °F /  -6.3 °C 3.3 °F /  -15.9 °C 1007.8 in /  34124.1 hPa WSW 22.2 mph /  35.7 km/h 11.7 mph /  18.8 km/h 32 % 0.0 in /  0 mm 63.00 W/m2 FEW
17:43 20.4 °F /  -6.4 °C 3.1 °F /  -16.1 °C 1007.8 in /  34124.1 hPa West 19.3 mph /  31.1 km/h 11.4 mph /  18.3 km/h 32 % 0.0 in /  0 mm 51.00 W/m2 FEW
17:49 20.2 °F /  -6.6 °C 3.0 °F /  -16.1 °C 1007.9 in /  34127.5 hPa NW 14.8 mph /  23.8 km/h 11.7 mph /  18.8 km/h 32 % 0.0 in /  0 mm 40.00 W/m2 FEW
17:53 20.1 °F /  -6.6 °C 3.3 °F /  -15.9 °C 1008.0 in /  34130.9 hPa WNW 18.5 mph /  29.8 km/h 9.8 mph /  15.8 km/h 33 % 0.0 in /  0 mm 33.00 W/m2 FEW
17:58 19.9 °F /  -6.7 °C 3.1 °F /  -16.1 °C 1008.1 in /  34134.3 hPa WSW 20.9 mph /  33.6 km/h 14.8 mph /  23.8 km/h 33 % 0.0 in /  0 mm 30.00 W/m2 FEW
18:04 19.7 °F /  -6.8 °C 3.3 °F /  -15.9 °C 1008.1 in /  34134.3 hPa WNW 18.5 mph /  29.8 km/h 10.9 mph /  17.5 km/h 34 % 0.0 in /  0 mm 25.00 W/m2 FEW
18:08 19.6 °F /  -6.9 °C 3.3 °F /  -15.9 °C 1008.2 in /  34137.7 hPa WNW 22.5 mph /  36.2 km/h 14.5 mph /  23.3 km/h 34 % 0.0 in /  0 mm 21.00 W/m2 FEW
18:13 19.3 °F /  -7.1 °C 3.5 °F /  -15.8 °C 1008.2 in /  34137.7 hPa West 20.9 mph /  33.6 km/h 14.3 mph /  23 km/h 35 % 0.0 in /  0 mm 18.00 W/m2 FEW
18:19 19.2 °F /  -7.1 °C 3.3 °F /  -15.9 °C 1008.1 in /  34134.3 hPa West 20.9 mph /  33.6 km/h 14.6 mph /  23.5 km/h 35 % 0.0 in /  0 mm 11.00 W/m2 FEW
18:23 18.9 °F /  -7.3 °C 3.6 °F /  -15.8 °C 1008.1 in /  34134.3 hPa WSW 17.7 mph /  28.5 km/h 12.9 mph /  20.8 km/h 36 % 0.0 in /  0 mm 7.00 W/m2 FEW
18:29 18.8 °F /  -7.3 °C 3.4 °F /  -15.9 °C 1008.2 in /  34137.7 hPa WSW 20.9 mph /  33.6 km/h 11.7 mph /  18.8 km/h 36 % 0.0 in /  0 mm 0.00 W/m2 FEW
18:34 18.6 °F /  -7.4 °C 3.6 °F /  -15.8 °C 1008.2 in /  34137.7 hPa West 14.8 mph /  23.8 km/h 9.8 mph /  15.8 km/h 37 % 0.0 in /  0 mm 0.00 W/m2 FEW
18:38 18.5 °F /  -7.5 °C 3.5 °F /  -15.8 °C 1008.4 in /  34144.4 hPa NW 18.5 mph /  29.8 km/h 9.5 mph /  15.3 km/h 37 % 0.0 in /  0 mm 0.00 W/m2 FEW
18:44 18.4 °F /  -7.6 °C 3.5 °F /  -15.8 °C 1008.4 in /  34144.4 hPa West 14.8 mph /  23.8 km/h 10.0 mph /  16.1 km/h 37 % 0.0 in /  0 mm 0.00 W/m2 FEW
18:49 18.4 °F /  -7.6 °C 3.4 °F /  -15.9 °C 1008.5 in /  34147.8 hPa NW 18.5 mph /  29.8 km/h 10.8 mph /  17.4 km/h 37 % 0.0 in /  0 mm 0.00 W/m2 FEW
18:54 18.3 °F /  -7.6 °C 3.8 °F /  -15.7 °C 1008.5 in /  34147.8 hPa West 20.4 mph /  32.8 km/h 8.0 mph /  12.9 km/h 38 % 0.0 in /  0 mm 0.00 W/m2 FEW
18:59 18.2 °F /  -7.7 °C 3.7 °F /  -15.7 °C 1008.5 in /  34147.8 hPa WSW 18.5 mph /  29.8 km/h 10.0 mph /  16.1 km/h 38 % 0.0 in /  0 mm 0.00 W/m2 FEW
19:04 18.1 °F /  -7.7 °C 3.6 °F /  -15.8 °C 1008.6 in /  34151.2 hPa WSW 18.5 mph /  29.8 km/h 11.1 mph /  17.9 km/h 38 % 0.0 in /  0 mm 0.00 W/m2 FEW
19:09 18.0 °F /  -7.8 °C 3.4 °F /  -15.9 °C 1008.7 in /  34154.6 hPa West 16.1 mph /  25.9 km/h 11.9 mph /  19.2 km/h 38 % 0.0 in /  0 mm 0.00 W/m2 FEW
19:14 17.9 °F /  -7.8 °C 3.4 °F /  -15.9 °C 1008.7 in /  34154.6 hPa NW 14.5 mph /  23.3 km/h 8.2 mph /  13.2 km/h 38 % 0.0 in /  0 mm 0.00 W/m2 FEW
19:18 17.9 °F /  -7.8 °C 3.3 °F /  -15.9 °C 1008.7 in /  34154.6 hPa West 17.7 mph /  28.5 km/h 11.3 mph /  18.2 km/h 38 % 0.0 in /  0 mm 0.00 W/m2 FEW
19:23 17.8 °F /  -7.9 °C 3.3 °F /  -15.9 °C 1008.8 in /  34158 hPa West 17.7 mph /  28.5 km/h 9.3 mph /  15 km/h 38 % 0.0 in /  0 mm 0.00 W/m2 FEW
19:28 17.7 °F /  -7.9 °C 3.2 °F /  -16 °C 1008.8 in /  34158 hPa WNW 19.3 mph /  31.1 km/h 12.2 mph /  19.6 km/h 38 % 0.0 in /  0 mm 0.00 W/m2 FEW
19:33 17.7 °F /  -7.9 °C 3.6 °F /  -15.8 °C 1008.9 in /  34161.4 hPa WSW 16.1 mph /  25.9 km/h 10.9 mph /  17.5 km/h 39 % 0.0 in /  0 mm 0.00 W/m2 FEW
19:38 17.6 °F /  -8 °C 3.5 °F /  -15.8 °C 1009.1 in /  34168.1 hPa West 16.7 mph /  26.9 km/h 8.8 mph /  14.2 km/h 39 % 0.0 in /  0 mm 0.00 W/m2 FEW
19:43 17.5 °F /  -8.1 °C 3.4 °F /  -15.9 °C 1009.1 in /  34168.1 hPa WNW 14.8 mph /  23.8 km/h 8.0 mph /  12.9 km/h 39 % 0.0 in /  0 mm 0.00 W/m2 FEW
19:48 17.4 °F /  -8.1 °C 3.3 °F /  -15.9 °C 1009.1 in /  34168.1 hPa NW 16.7 mph /  26.9 km/h 13.0 mph /  20.9 km/h 39 % 0.0 in /  0 mm 0.00 W/m2 FEW
19:53 17.3 °F /  -8.2 °C 3.2 °F /  -16 °C 1009.2 in /  34171.5 hPa NW 14.5 mph /  23.3 km/h 12.1 mph /  19.5 km/h 39 % 0.0 in /  0 mm 0.00 W/m2 FEW
19:58 17.2 °F /  -8.2 °C 3.5 °F /  -15.8 °C 1009.3 in /  34174.9 hPa NW 19.3 mph /  31.1 km/h 11.6 mph /  18.7 km/h 40 % 0.0 in /  0 mm 0.00 W/m2 FEW
20:03 17.0 °F /  -8.3 °C 3.7 °F /  -15.7 °C 1009.3 in /  34174.9 hPa NW 17.7 mph /  28.5 km/h 13.0 mph /  20.9 km/h 41 % 0.0 in /  0 mm 0.00 W/m2 FEW
20:09 16.8 °F /  -8.4 °C 3.8 °F /  -15.7 °C 1009.5 in /  34181.7 hPa NW 13.0 mph /  20.9 km/h 10.0 mph /  16.1 km/h 42 % 0.0 in /  0 mm 0.00 W/m2 FEW
20:13 16.7 °F /  -8.5 °C 3.7 °F /  -15.7 °C 1009.4 in /  34178.3 hPa NNW 14.5 mph /  23.3 km/h 11.4 mph /  18.3 km/h 42 % 0.0 in /  0 mm 0.00 W/m2 FEW
20:18 16.6 °F /  -8.6 °C 3.9 °F /  -15.6 °C 1009.5 in /  34181.7 hPa NNW 14.8 mph /  23.8 km/h 11.7 mph /  18.8 km/h 43 % 0.0 in /  0 mm 0.00 W/m2 FEW
20:24 16.4 °F /  -8.7 °C 4.1 °F /  -15.5 °C 1009.5 in /  34181.7 hPa NNW 13.0 mph /  20.9 km/h 9.8 mph /  15.8 km/h 44 % 0.0 in /  0 mm 0.00 W/m2 FEW
20:29 16.3 °F /  -8.7 °C 4.0 °F /  -15.6 °C 1009.6 in /  34185.1 hPa NW 19.3 mph /  31.1 km/h 12.4 mph /  20 km/h 44 % 0.0 in /  0 mm 0.00 W/m2 FEW
20:33 16.3 °F /  -8.7 °C 4.0 °F /  -15.6 °C 1009.6 in /  34185.1 hPa NNW 18.5 mph /  29.8 km/h 12.7 mph /  20.4 km/h 44 % 0.0 in /  0 mm 0.00 W/m2 FEW
20:39 16.2 °F /  -8.8 °C 3.9 °F /  -15.6 °C 1009.7 in /  34188.4 hPa NW 18.5 mph /  29.8 km/h 13.0 mph /  20.9 km/h 44 % 0.0 in /  0 mm 0.00 W/m2 FEW
20:44 16.2 °F /  -8.8 °C 4.3 °F /  -15.4 °C 1009.6 in /  34185.1 hPa NW 18.5 mph /  29.8 km/h 12.9 mph /  20.8 km/h 45 % 0.0 in /  0 mm 0.00 W/m2 FEW
20:48 16.2 °F /  -8.8 °C 4.2 °F /  -15.4 °C 1009.7 in /  34188.4 hPa NNW 18.5 mph /  29.8 km/h 10.8 mph /  17.4 km/h 45 % 0.0 in /  0 mm 0.00 W/m2 FEW
20:54 16.1 °F /  -8.8 °C 4.5 °F /  -15.3 °C 1009.8 in /  34191.8 hPa WNW 16.7 mph /  26.9 km/h 12.1 mph /  19.5 km/h 46 % 0.0 in /  0 mm 0.00 W/m2 FEW
20:59 16.0 °F /  -8.9 °C 4.4 °F /  -15.3 °C 1009.8 in /  34191.8 hPa NNW 19.3 mph /  31.1 km/h 13.8 mph /  22.2 km/h 46 % 0.0 in /  0 mm 0.00 W/m2 FEW
21:03 15.9 °F /  -8.9 °C 4.3 °F /  -15.4 °C 1009.9 in /  34195.2 hPa WNW 19.3 mph /  31.1 km/h 13.4 mph /  21.6 km/h 46 % 0.0 in /  0 mm 0.00 W/m2 FEW
21:09 15.8 °F /  -9 °C 4.6 °F /  -15.2 °C 1009.8 in /  34191.8 hPa NW 18.5 mph /  29.8 km/h 12.6 mph /  20.3 km/h 47 % 0.0 in /  0 mm 0.00 W/m2 FEW
21:14 15.8 °F /  -9 °C 4.5 °F /  -15.3 °C 1009.8 in /  34191.8 hPa WNW 18.5 mph /  29.8 km/h 12.7 mph /  20.4 km/h 47 % 0.0 in /  0 mm 0.00 W/m2 FEW
21:18 15.7 °F /  -9.1 °C 4.7 °F /  -15.2 °C 1009.9 in /  34195.2 hPa West 19.3 mph /  31.1 km/h 10.6 mph /  17.1 km/h 48 % 0.0 in /  0 mm 0.00 W/m2 FEW
21:24 15.7 °F /  -9.1 °C 4.7 °F /  -15.2 °C 1009.8 in /  34191.8 hPa NW 19.3 mph /  31.1 km/h 13.4 mph /  21.6 km/h 48 % 0.0 in /  0 mm 0.00 W/m2 FEW
21:29 15.6 °F /  -9.1 °C 4.6 °F /  -15.2 °C 1009.9 in /  34195.2 hPa NW 19.3 mph /  31.1 km/h 14.0 mph /  22.5 km/h 48 % 0.0 in /  0 mm 0.00 W/m2 FEW
21:34 15.6 °F /  -9.1 °C 4.9 °F /  -15.1 °C 1010.0 in /  34198.6 hPa NW 20.9 mph /  33.6 km/h 14.8 mph /  23.8 km/h 49 % 0.0 in /  0 mm 0.00 W/m2 FEW
21:39 15.6 °F /  -9.1 °C 4.9 °F /  -15.1 °C 1010.1 in /  34202 hPa West 20.9 mph /  33.6 km/h 12.9 mph /  20.8 km/h 49 % 0.0 in /  0 mm 0.00 W/m2 FEW
21:44 15.6 °F /  -9.1 °C 4.9 °F /  -15.1 °C 1010.1 in /  34202 hPa WNW 14.8 mph /  23.8 km/h 11.3 mph /  18.2 km/h 49 % 0.0 in /  0 mm 0.00 W/m2 FEW
21:48 15.6 °F /  -9.1 °C 4.9 °F /  -15.1 °C 1010.1 in /  34202 hPa West 16.7 mph /  26.9 km/h 9.5 mph /  15.3 km/h 49 % 0.0 in /  0 mm 0.00 W/m2 FEW
21:53 15.6 °F /  -9.1 °C 4.9 °F /  -15.1 °C 1010.2 in /  34205.4 hPa NW 16.7 mph /  26.9 km/h 10.0 mph /  16.1 km/h 49 % 0.0 in /  0 mm 0.00 W/m2 FEW
21:58 15.6 °F /  -9.1 °C 4.9 °F /  -15.1 °C 1010.3 in /  34208.8 hPa NW 22.5 mph /  36.2 km/h 15.8 mph /  25.4 km/h 49 % 0.0 in /  0 mm 0.00 W/m2 FEW
22:04 15.7 °F /  -9.1 °C 5.0 °F /  -15 °C 1010.3 in /  34208.8 hPa WNW 13.0 mph /  20.9 km/h 7.7 mph /  12.4 km/h 49 % 0.0 in /  0 mm 0.00 W/m2 FEW
22:08 15.6 °F /  -9.1 °C 4.9 °F /  -15.1 °C 1010.4 in /  34212.1 hPa WNW 16.1 mph /  25.9 km/h 10.1 mph /  16.3 km/h 49 % 0.0 in /  0 mm 0.00 W/m2 FEW
22:13 15.7 °F /  -9.1 °C 5.0 °F /  -15 °C 1010.5 in /  34215.5 hPa NW 14.8 mph /  23.8 km/h 8.7 mph /  14 km/h 49 % 0.0 in /  0 mm 0.00 W/m2 FEW
22:19 15.6 °F /  -9.1 °C 4.9 °F /  -15.1 °C 1010.5 in /  34215.5 hPa WNW 13.0 mph /  20.9 km/h 10.3 mph /  16.6 km/h 49 % 0.0 in /  0 mm 0.00 W/m2 FEW
22:23 15.6 °F /  -9.1 °C 5.2 °F /  -14.9 °C 1010.5 in /  34215.5 hPa NW 13.0 mph /  20.9 km/h 9.2 mph /  14.8 km/h 50 % 0.0 in /  0 mm 0.00 W/m2 FEW
22:28 15.5 °F /  -9.2 °C 5.1 °F /  -14.9 °C 1010.5 in /  34215.5 hPa WNW 11.3 mph /  18.2 km/h 9.0 mph /  14.5 km/h 50 % 0.0 in /  0 mm 0.00 W/m2 FEW
22:34 15.4 °F /  -9.2 °C 5.3 °F /  -14.8 °C 1010.5 in /  34215.5 hPa NW 19.3 mph /  31.1 km/h 12.6 mph /  20.3 km/h 51 % 0.0 in /  0 mm 0.00 W/m2 FEW
22:38 15.4 °F /  -9.2 °C 5.3 °F /  -14.8 °C 1010.5 in /  34215.5 hPa West 16.7 mph /  26.9 km/h 10.1 mph /  16.3 km/h 51 % 0.0 in /  0 mm 0.00 W/m2 FEW
22:43 15.3 °F /  -9.3 °C 5.2 °F /  -14.9 °C 1010.5 in /  34215.5 hPa WSW 12.9 mph /  20.8 km/h 7.1 mph /  11.4 km/h 51 % 0.0 in /  0 mm 0.00 W/m2 FEW
22:49 15.3 °F /  -9.3 °C 5.5 °F /  -14.7 °C 1010.5 in /  34215.5 hPa SW 13.0 mph /  20.9 km/h 8.8 mph /  14.2 km/h 52 % 0.0 in /  0 mm 0.00 W/m2 FEW
22:53 15.2 °F /  -9.3 °C 5.7 °F /  -14.6 °C 1010.6 in /  34218.9 hPa WNW 18.5 mph /  29.8 km/h 11.3 mph /  18.2 km/h 53 % 0.0 in /  0 mm 0.00 W/m2 FEW
22:58 15.1 °F /  -9.4 °C 5.6 °F /  -14.7 °C 1010.5 in /  34215.5 hPa West 22.2 mph /  35.7 km/h 13.2 mph /  21.2 km/h 53 % 0.0 in /  0 mm 0.00 W/m2 FEW
23:04 14.9 °F /  -9.5 °C 5.7 °F /  -14.6 °C 1010.6 in /  34218.9 hPa West 18.5 mph /  29.8 km/h 13.0 mph /  20.9 km/h 54 % 0.0 in /  0 mm 0.00 W/m2 FEW
23:09 14.8 °F /  -9.6 °C 5.9 °F /  -14.5 °C 1010.6 in /  34218.9 hPa WSW 19.3 mph /  31.1 km/h 11.9 mph /  19.2 km/h 55 % 0.0 in /  0 mm 0.00 W/m2 FEW
23:13 14.7 °F /  -9.6 °C 5.7 °F /  -14.6 °C 1010.7 in /  34222.3 hPa West 18.5 mph /  29.8 km/h 9.5 mph /  15.3 km/h 55 % 0.0 in /  0 mm 0.00 W/m2 FEW
23:19 14.4 °F /  -9.8 °C 5.8 °F /  -14.6 °C 1010.6 in /  34218.9 hPa West 18.5 mph /  29.8 km/h 10.3 mph /  16.6 km/h 56 % 0.0 in /  0 mm 0.00 W/m2 FEW
23:24 14.3 °F /  -9.8 °C 5.9 °F /  -14.5 °C 1010.8 in /  34225.7 hPa WNW 14.8 mph /  23.8 km/h 8.7 mph /  14 km/h 57 % 0.0 in /  0 mm 0.00 W/m2 FEW
23:28 14.2 °F /  -9.9 °C 5.8 °F /  -14.6 °C 1010.7 in /  34222.3 hPa West 16.1 mph /  25.9 km/h 9.2 mph /  14.8 km/h 57 % 0.0 in /  0 mm 0.00 W/m2 FEW
23:34 14.1 °F /  -9.9 °C 5.9 °F /  -14.5 °C 1010.8 in /  34225.7 hPa West 13.0 mph /  20.9 km/h 8.2 mph /  13.2 km/h 58 % 0.0 in /  0 mm 0.00 W/m2 FEW
23:39 14.0 °F /  -10 °C 5.8 °F /  -14.6 °C 1010.9 in /  34229.1 hPa WNW 16.7 mph /  26.9 km/h 9.0 mph /  14.5 km/h 58 % 0.0 in /  0 mm 0.00 W/m2 FEW
23:43 13.9 °F /  -10.1 °C 6.1 °F /  -14.4 °C 1010.7 in /  34222.3 hPa WSW 14.8 mph /  23.8 km/h 9.0 mph /  14.5 km/h 59 % 0.0 in /  0 mm 0.00 W/m2 FEW
23:49 13.9 °F /  -10.1 °C 6.0 °F /  -14.4 °C 1010.8 in /  34225.7 hPa West 16.7 mph /  26.9 km/h 7.2 mph /  11.6 km/h 59 % 0.0 in /  0 mm 0.00 W/m2 FEW
23:54 13.8 °F /  -10.1 °C 6.2 °F /  -14.3 °C 1010.9 in /  34229.1 hPa West 19.3 mph /  31.1 km/h 13.2 mph /  21.2 km/h 60 % 0.0 in /  0 mm 0.00 W/m2 FEW
23:58 13.8 °F /  -10.1 °C 6.2 °F /  -14.3 °C 1010.9 in /  34229.1 hPa West 14.8 mph /  23.8 km/h 9.8 mph /  15.8 km/h 60 % 0.0 in /  0 mm 0.00 W/m2 FEW
Juneau County Weather
Compliments of Weather Underground - 3.5 mb